createdAt,value
2022-10-27T00:00:13.068Z,20.0
2022-10-27T00:20:13.059Z,20.0
2022-10-27T00:40:13.041Z,19.9
2022-10-27T01:00:13.017Z,19.9
2022-10-27T01:20:13.007Z,19.9
2022-10-27T01:40:12.975Z,19.9
2022-10-27T02:00:12.931Z,19.9
2022-10-27T02:20:12.919Z,19.8
2022-10-27T02:40:12.905Z,19.8
2022-10-27T03:00:12.856Z,19.8
2022-10-27T03:20:12.843Z,19.8
2022-10-27T03:40:12.822Z,19.8
2022-10-27T04:00:12.785Z,19.8
2022-10-27T04:20:12.792Z,19.8
2022-10-27T04:40:12.741Z,19.7
2022-10-27T05:00:12.738Z,19.9
2022-10-27T05:20:12.673Z,20.0
2022-10-27T05:40:12.654Z,20.1
2022-10-27T06:00:12.669Z,20.1
2022-10-27T06:20:12.606Z,20.1
2022-10-27T06:40:12.584Z,20.2
2022-10-27T07:00:12.577Z,20.3
2022-10-27T07:20:12.539Z,20.3
2022-10-27T07:40:12.508Z,20.4
2022-10-27T08:00:12.495Z,20.4
2022-10-27T08:20:12.444Z,20.4
2022-10-27T08:40:12.431Z,20.2
2022-10-27T09:00:12.435Z,20.4
2022-10-27T09:20:12.420Z,20.4
2022-10-27T09:40:12.365Z,20.5
2022-10-27T10:00:12.338Z,20.5
2022-10-27T10:20:12.324Z,20.5
2022-10-27T10:40:12.277Z,20.3
2022-10-27T11:00:12.262Z,20.3
2022-10-27T11:20:12.281Z,20.2
2022-10-27T11:40:12.222Z,20.2
2022-10-27T12:00:12.187Z,20.1
2022-10-27T12:20:12.215Z,20.1
2022-10-27T12:40:12.139Z,20.1
2022-10-27T13:00:12.106Z,20.0
2022-10-27T13:20:12.097Z,20.0
2022-10-27T13:40:12.108Z,20.1
2022-10-27T14:00:12.038Z,20.1
2022-10-27T14:20:12.017Z,20.2
2022-10-27T14:40:11.993Z,20.1
2022-10-27T15:00:12.022Z,20.1
2022-10-27T15:20:12.009Z,20.2
2022-10-27T15:40:11.928Z,20.2
2022-10-27T16:00:11.888Z,20.1
2022-10-27T16:20:11.856Z,20.1
2022-10-27T16:40:11.841Z,20.0
2022-10-27T17:00:11.833Z,20.0
2022-10-27T17:20:11.771Z,20.0
2022-10-27T17:40:11.747Z,20.0
2022-10-27T18:00:11.809Z,20.0
2022-10-27T18:20:11.717Z,20.0
2022-10-27T18:40:11.711Z,20.0
2022-10-27T19:00:11.686Z,20.0
2022-10-27T19:20:11.675Z,20.0
2022-10-27T19:40:11.647Z,20.1
2022-10-27T20:00:11.592Z,20.0
2022-10-27T20:20:11.580Z,20.0
2022-10-27T20:40:11.561Z,20.0
2022-10-27T21:00:11.522Z,20.0
2022-10-27T21:20:11.513Z,19.9
2022-10-27T21:40:11.460Z,19.9
2022-10-27T22:00:11.438Z,19.9
2022-10-27T22:20:11.449Z,19.9
2022-10-27T22:40:11.425Z,19.9
2022-10-27T23:00:11.357Z,19.9
2022-10-27T23:20:11.335Z,19.9
2022-10-27T23:40:11.354Z,19.9
